sensor_id;sensor_type;location;lat;lon;timestamp;pressure;altitude;pressure_sealevel;temperature
16956;BMP180;8594;52.052;8.354;2022-07-06T00:01:43;101462.00;;;20.80
16956;BMP180;8594;52.052;8.354;2022-07-06T00:04:10;101452.00;;;20.80
16956;BMP180;8594;52.052;8.354;2022-07-06T00:06:39;101456.00;;;20.80
16956;BMP180;8594;52.052;8.354;2022-07-06T00:09:06;101455.00;;;20.60
16956;BMP180;8594;52.052;8.354;2022-07-06T00:11:33;101459.00;;;20.60
16956;BMP180;8594;52.052;8.354;2022-07-06T00:14:01;101463.00;;;20.70
16956;BMP180;8594;52.052;8.354;2022-07-06T00:16:28;101460.00;;;20.70
16956;BMP180;8594;52.052;8.354;2022-07-06T00:18:56;101460.00;;;20.40
16956;BMP180;8594;52.052;8.354;2022-07-06T00:21:23;101452.00;;;20.40
16956;BMP180;8594;52.052;8.354;2022-07-06T00:23:51;101456.00;;;20.20
16956;BMP180;8594;52.052;8.354;2022-07-06T00:26:19;101462.00;;;20.20
16956;BMP180;8594;52.052;8.354;2022-07-06T00:28:46;101458.00;;;20.40
16956;BMP180;8594;52.052;8.354;2022-07-06T00:31:13;101456.00;;;20.40
16956;BMP180;8594;52.052;8.354;2022-07-06T00:33:40;101459.00;;;20.70
16956;BMP180;8594;52.052;8.354;2022-07-06T00:36:07;101457.00;;;20.60
16956;BMP180;8594;52.052;8.354;2022-07-06T00:38:34;101456.00;;;20.50
16956;BMP180;8594;52.052;8.354;2022-07-06T00:41:02;101455.00;;;20.60
16956;BMP180;8594;52.052;8.354;2022-07-06T00:43:47;101459.00;;;20.30
16956;BMP180;8594;52.052;8.354;2022-07-06T00:46:14;101462.00;;;20.20
16956;BMP180;8594;52.052;8.354;2022-07-06T00:48:41;101454.00;;;20.00
16956;BMP180;8594;52.052;8.354;2022-07-06T00:51:09;101466.00;;;20.10
16956;BMP180;8594;52.052;8.354;2022-07-06T00:53:37;101469.00;;;20.60
16956;BMP180;8594;52.052;8.354;2022-07-06T00:56:06;101463.00;;;20.20
16956;BMP180;8594;52.052;8.354;2022-07-06T00:58:34;101460.00;;;20.00
16956;BMP180;8594;52.052;8.354;2022-07-06T01:01:01;101469.00;;;19.70
16956;BMP180;8594;52.052;8.354;2022-07-06T01:03:27;101467.00;;;19.90
16956;BMP180;8594;52.052;8.354;2022-07-06T01:05:54;101467.00;;;19.90
16956;BMP180;8594;52.052;8.354;2022-07-06T01:08:22;101471.00;;;20.20
16956;BMP180;8594;52.052;8.354;2022-07-06T01:10:51;101466.00;;;19.80
16956;BMP180;8594;52.052;8.354;2022-07-06T01:13:19;101472.00;;;20.20
16956;BMP180;8594;52.052;8.354;2022-07-06T01:15:46;101459.00;;;20.30
16956;BMP180;8594;52.052;8.354;2022-07-06T01:18:14;101454.00;;;20.10
16956;BMP180;8594;52.052;8.354;2022-07-06T01:20:43;101455.00;;;20.20
16956;BMP180;8594;52.052;8.354;2022-07-06T01:23:10;101448.00;;;20.00
16956;BMP180;8594;52.052;8.354;2022-07-06T01:25:37;101449.00;;;20.00
16956;BMP180;8594;52.052;8.354;2022-07-06T01:28:05;101455.00;;;19.90
16956;BMP180;8594;52.052;8.354;2022-07-06T01:30:32;101457.00;;;20.30
16956;BMP180;8594;52.052;8.354;2022-07-06T01:32:59;101452.00;;;19.90
16956;BMP180;8594;52.052;8.354;2022-07-06T01:35:29;101458.00;;;19.90
16956;BMP180;8594;52.052;8.354;2022-07-06T01:37:59;101461.00;;;20.30
16956;BMP180;8594;52.052;8.354;2022-07-06T01:40:26;101460.00;;;20.10
16956;BMP180;8594;52.052;8.354;2022-07-06T01:42:53;101450.00;;;20.10
16956;BMP180;8594;52.052;8.354;2022-07-06T01:45:20;101451.00;;;19.90
16956;BMP180;8594;52.052;8.354;2022-07-06T01:47:47;101448.00;;;19.80
16956;BMP180;8594;52.052;8.354;2022-07-06T01:50:14;101451.00;;;19.70
16956;BMP180;8594;52.052;8.354;2022-07-06T01:52:41;101451.00;;;19.60
16956;BMP180;8594;52.052;8.354;2022-07-06T01:55:09;101456.00;;;19.70
16956;BMP180;8594;52.052;8.354;2022-07-06T01:57:36;101447.00;;;19.70
16956;BMP180;8594;52.052;8.354;2022-07-06T02:00:07;101451.00;;;19.90
16956;BMP180;8594;52.052;8.354;2022-07-06T02:02:34;101455.00;;;19.80
16956;BMP180;8594;52.052;8.354;2022-07-06T02:05:01;101454.00;;;19.90
16956;BMP180;8594;52.052;8.354;2022-07-06T02:07:28;101448.00;;;19.70
16956;BMP180;8594;52.052;8.354;2022-07-06T02:09:55;101450.00;;;19.70
16956;BMP180;8594;52.052;8.354;2022-07-06T02:12:23;101445.00;;;19.90
16956;BMP180;8594;52.052;8.354;2022-07-06T02:14:50;101450.00;;;19.90
16956;BMP180;8594;52.052;8.354;2022-07-06T02:17:17;101455.00;;;19.60
16956;BMP180;8594;52.052;8.354;2022-07-06T02:19:44;101452.00;;;19.60
16956;BMP180;8594;52.052;8.354;2022-07-06T02:22:11;101460.00;;;19.40
16956;BMP180;8594;52.052;8.354;2022-07-06T02:24:38;101454.00;;;19.20
16956;BMP180;8594;52.052;8.354;2022-07-06T02:27:05;101461.00;;;19.40
16956;BMP180;8594;52.052;8.354;2022-07-06T02:29:33;101462.00;;;19.10
16956;BMP180;8594;52.052;8.354;2022-07-06T02:32:00;101465.00;;;18.80
16956;BMP180;8594;52.052;8.354;2022-07-06T02:34:27;101452.00;;;19.20
16956;BMP180;8594;52.052;8.354;2022-07-06T02:36:56;101454.00;;;19.10
16956;BMP180;8594;52.052;8.354;2022-07-06T02:39:23;101456.00;;;19.30
16956;BMP180;8594;52.052;8.354;2022-07-06T02:41:50;101459.00;;;19.30
16956;BMP180;8594;52.052;8.354;2022-07-06T02:44:17;101450.00;;;19.30
16956;BMP180;8594;52.052;8.354;2022-07-06T02:46:45;101450.00;;;18.90
16956;BMP180;8594;52.052;8.354;2022-07-06T02:49:12;101457.00;;;19.20
16956;BMP180;8594;52.052;8.354;2022-07-06T02:51:38;101452.00;;;18.90
16956;BMP180;8594;52.052;8.354;2022-07-06T02:54:05;101452.00;;;18.90
16956;BMP180;8594;52.052;8.354;2022-07-06T02:56:32;101454.00;;;18.90
16956;BMP180;8594;52.052;8.354;2022-07-06T02:58:59;101455.00;;;19.00
16956;BMP180;8594;52.052;8.354;2022-07-06T03:01:26;101448.00;;;18.80
16956;BMP180;8594;52.052;8.354;2022-07-06T03:03:54;101447.00;;;19.00
16956;BMP180;8594;52.052;8.354;2022-07-06T03:06:21;101457.00;;;18.80
16956;BMP180;8594;52.052;8.354;2022-07-06T03:08:47;101464.00;;;18.90
16956;BMP180;8594;52.052;8.354;2022-07-06T03:11:14;101464.00;;;19.10
16956;BMP180;8594;52.052;8.354;2022-07-06T03:13:41;101466.00;;;18.80
16956;BMP180;8594;52.052;8.354;2022-07-06T03:16:08;101468.00;;;18.80
16956;BMP180;8594;52.052;8.354;2022-07-06T03:18:35;101474.00;;;18.50
16956;BMP180;8594;52.052;8.354;2022-07-06T03:21:03;101480.00;;;18.60
16956;BMP180;8594;52.052;8.354;2022-07-06T03:23:30;101477.00;;;18.40
16956;BMP180;8594;52.052;8.354;2022-07-06T03:25:57;101477.00;;;18.30
16956;BMP180;8594;52.052;8.354;2022-07-06T03:28:24;101483.00;;;18.10
16956;BMP180;8594;52.052;8.354;2022-07-06T03:30:51;101485.00;;;17.90
16956;BMP180;8594;52.052;8.354;2022-07-06T03:33:17;101488.00;;;18.00
16956;BMP180;8594;52.052;8.354;2022-07-06T03:35:44;101483.00;;;18.20
16956;BMP180;8594;52.052;8.354;2022-07-06T03:38:12;101490.00;;;18.10
16956;BMP180;8594;52.052;8.354;2022-07-06T03:40:39;101480.00;;;18.20
16956;BMP180;8594;52.052;8.354;2022-07-06T03:43:06;101488.00;;;18.30
16956;BMP180;8594;52.052;8.354;2022-07-06T03:45:33;101480.00;;;18.30
16956;BMP180;8594;52.052;8.354;2022-07-06T03:47:59;101477.00;;;18.20
16956;BMP180;8594;52.052;8.354;2022-07-06T03:50:26;101480.00;;;18.40
16956;BMP180;8594;52.052;8.354;2022-07-06T03:52:53;101484.00;;;18.30
16956;BMP180;8594;52.052;8.354;2022-07-06T03:55:21;101484.00;;;18.60
16956;BMP180;8594;52.052;8.354;2022-07-06T03:57:48;101479.00;;;18.70
16956;BMP180;8594;52.052;8.354;2022-07-06T04:00:15;101484.00;;;19.40
16956;BMP180;8594;52.052;8.354;2022-07-06T04:02:42;101479.00;;;19.20
16956;BMP180;8594;52.052;8.354;2022-07-06T04:05:09;101476.00;;;19.50
16956;BMP180;8594;52.052;8.354;2022-07-06T04:07:36;101478.00;;;19.30
16956;BMP180;8594;52.052;8.354;2022-07-06T04:10:04;101484.00;;;19.70
16956;BMP180;8594;52.052;8.354;2022-07-06T04:12:39;101480.00;;;19.80
16956;BMP180;8594;52.052;8.354;2022-07-06T04:15:07;101477.00;;;19.40
16956;BMP180;8594;52.052;8.354;2022-07-06T04:17:34;101485.00;;;19.50
16956;BMP180;8594;52.052;8.354;2022-07-06T04:20:20;101480.00;;;20.10
16956;BMP180;8594;52.052;8.354;2022-07-06T04:22:48;101476.00;;;19.40
16956;BMP180;8594;52.052;8.354;2022-07-06T04:25:15;101480.00;;;19.80
16956;BMP180;8594;52.052;8.354;2022-07-06T04:27:43;101469.00;;;20.50
16956;BMP180;8594;52.052;8.354;2022-07-06T04:30:11;101472.00;;;20.20
16956;BMP180;8594;52.052;8.354;2022-07-06T04:32:38;101471.00;;;20.70
16956;BMP180;8594;52.052;8.354;2022-07-06T04:35:06;101468.00;;;20.80
16956;BMP180;8594;52.052;8.354;2022-07-06T04:37:33;101472.00;;;20.70
16956;BMP180;8594;52.052;8.354;2022-07-06T04:40:00;101472.00;;;21.00
16956;BMP180;8594;52.052;8.354;2022-07-06T04:42:27;101471.00;;;21.00
16956;BMP180;8594;52.052;8.354;2022-07-06T04:44:55;101467.00;;;21.20
16956;BMP180;8594;52.052;8.354;2022-07-06T04:47:22;101468.00;;;20.70
16956;BMP180;8594;52.052;8.354;2022-07-06T04:49:49;101470.00;;;20.70
16956;BMP180;8594;52.052;8.354;2022-07-06T04:52:16;101470.00;;;21.00
16956;BMP180;8594;52.052;8.354;2022-07-06T04:54:43;101471.00;;;20.80
16956;BMP180;8594;52.052;8.354;2022-07-06T04:57:09;101474.00;;;20.70
16956;BMP180;8594;52.052;8.354;2022-07-06T04:59:36;101476.00;;;21.10
16956;BMP180;8594;52.052;8.354;2022-07-06T05:02:05;101487.00;;;20.80
16956;BMP180;8594;52.052;8.354;2022-07-06T05:04:31;101481.00;;;20.80
16956;BMP180;8594;52.052;8.354;2022-07-06T05:06:58;101475.00;;;21.30
16956;BMP180;8594;52.052;8.354;2022-07-06T05:09:25;101476.00;;;21.40
16956;BMP180;8594;52.052;8.354;2022-07-06T05:11:52;101476.00;;;21.30
16956;BMP180;8594;52.052;8.354;2022-07-06T05:14:19;101478.00;;;21.40
16956;BMP180;8594;52.052;8.354;2022-07-06T05:16:46;101477.00;;;21.80
16956;BMP180;8594;52.052;8.354;2022-07-06T05:19:14;101476.00;;;21.70
16956;BMP180;8594;52.052;8.354;2022-07-06T05:21:41;101471.00;;;21.90
16956;BMP180;8594;52.052;8.354;2022-07-06T05:24:08;101466.00;;;22.00
16956;BMP180;8594;52.052;8.354;2022-07-06T05:26:35;101473.00;;;22.00
16956;BMP180;8594;52.052;8.354;2022-07-06T05:29:02;101470.00;;;22.10
16956;BMP180;8594;52.052;8.354;2022-07-06T05:31:28;101472.00;;;21.70
16956;BMP180;8594;52.052;8.354;2022-07-06T05:33:55;101466.00;;;22.10
16956;BMP180;8594;52.052;8.354;2022-07-06T05:36:24;101472.00;;;22.20
16956;BMP180;8594;52.052;8.354;2022-07-06T05:38:50;101480.00;;;22.40
16956;BMP180;8594;52.052;8.354;2022-07-06T05:41:17;101486.00;;;22.20
16956;BMP180;8594;52.052;8.354;2022-07-06T05:43:44;101490.00;;;21.90
16956;BMP180;8594;52.052;8.354;2022-07-06T05:46:11;101490.00;;;21.00
16956;BMP180;8594;52.052;8.354;2022-07-06T05:48:38;101486.00;;;21.10
16956;BMP180;8594;52.052;8.354;2022-07-06T05:51:23;101493.00;;;20.70
16956;BMP180;8594;52.052;8.354;2022-07-06T05:53:50;101493.00;;;20.60
16956;BMP180;8594;52.052;8.354;2022-07-06T05:56:17;101486.00;;;20.60
16956;BMP180;8594;52.052;8.354;2022-07-06T05:58:44;101485.00;;;20.70
16956;BMP180;8594;52.052;8.354;2022-07-06T06:01:11;101498.00;;;20.70
16956;BMP180;8594;52.052;8.354;2022-07-06T06:03:38;101497.00;;;20.50
16956;BMP180;8594;52.052;8.354;2022-07-06T06:06:05;101495.00;;;20.90
16956;BMP180;8594;52.052;8.354;2022-07-06T06:08:33;101496.00;;;20.70
16956;BMP180;8594;52.052;8.354;2022-07-06T06:11:00;101505.00;;;20.80
16956;BMP180;8594;52.052;8.354;2022-07-06T06:13:27;101512.00;;;20.60
16956;BMP180;8594;52.052;8.354;2022-07-06T06:15:54;101520.00;;;20.70
16956;BMP180;8594;52.052;8.354;2022-07-06T06:18:21;101519.00;;;21.00
16956;BMP180;8594;52.052;8.354;2022-07-06T06:20:48;101526.00;;;20.20
16956;BMP180;8594;52.052;8.354;2022-07-06T06:23:14;101524.00;;;20.00
16956;BMP180;8594;52.052;8.354;2022-07-06T06:25:43;101528.00;;;20.20
16956;BMP180;8594;52.052;8.354;2022-07-06T06:28:11;101526.00;;;20.40
16956;BMP180;8594;52.052;8.354;2022-07-06T06:30:39;101517.00;;;20.50
16956;BMP180;8594;52.052;8.354;2022-07-06T06:33:08;101525.00;;;20.20
16956;BMP180;8594;52.052;8.354;2022-07-06T06:35:36;101531.00;;;20.30
16956;BMP180;8594;52.052;8.354;2022-07-06T06:38:03;101533.00;;;20.00
16956;BMP180;8594;52.052;8.354;2022-07-06T06:40:30;101539.00;;;20.30
16956;BMP180;8594;52.052;8.354;2022-07-06T06:42:59;101548.00;;;20.60
16956;BMP180;8594;52.052;8.354;2022-07-06T06:45:26;101534.00;;;20.60
16956;BMP180;8594;52.052;8.354;2022-07-06T06:47:53;101540.00;;;20.80
16956;BMP180;8594;52.052;8.354;2022-07-06T06:50:20;101534.00;;;20.40
16956;BMP180;8594;52.052;8.354;2022-07-06T06:52:48;101536.00;;;20.50
16956;BMP180;8594;52.052;8.354;2022-07-06T06:55:15;101531.00;;;20.30
16956;BMP180;8594;52.052;8.354;2022-07-06T06:57:43;101542.00;;;20.50
16956;BMP180;8594;52.052;8.354;2022-07-06T07:00:13;101545.00;;;20.40
16956;BMP180;8594;52.052;8.354;2022-07-06T07:02:40;101549.00;;;20.50
16956;BMP180;8594;52.052;8.354;2022-07-06T07:05:07;101548.00;;;20.20
16956;BMP180;8594;52.052;8.354;2022-07-06T07:07:34;101550.00;;;20.30
16956;BMP180;8594;52.052;8.354;2022-07-06T07:10:03;101555.00;;;20.60
16956;BMP180;8594;52.052;8.354;2022-07-06T07:12:30;101550.00;;;20.60
16956;BMP180;8594;52.052;8.354;2022-07-06T07:14:58;101544.00;;;20.90
16956;BMP180;8594;52.052;8.354;2022-07-06T07:17:27;101543.00;;;20.40
16956;BMP180;8594;52.052;8.354;2022-07-06T07:19:54;101546.00;;;20.60
16956;BMP180;8594;52.052;8.354;2022-07-06T07:22:22;101549.00;;;20.50
16956;BMP180;8594;52.052;8.354;2022-07-06T07:24:54;101550.00;;;20.80
16956;BMP180;8594;52.052;8.354;2022-07-06T07:27:21;101544.00;;;20.90
16956;BMP180;8594;52.052;8.354;2022-07-06T07:29:48;101550.00;;;21.10
16956;BMP180;8594;52.052;8.354;2022-07-06T07:32:14;101561.00;;;21.30
16956;BMP180;8594;52.052;8.354;2022-07-06T07:34:42;101559.00;;;21.20
16956;BMP180;8594;52.052;8.354;2022-07-06T07:37:10;101547.00;;;20.40
16956;BMP180;8594;52.052;8.354;2022-07-06T07:39:37;101557.00;;;21.20
16956;BMP180;8594;52.052;8.354;2022-07-06T07:42:04;101558.00;;;21.30
16956;BMP180;8594;52.052;8.354;2022-07-06T07:44:31;101560.00;;;21.60
16956;BMP180;8594;52.052;8.354;2022-07-06T07:46:58;101563.00;;;21.50
16956;BMP180;8594;52.052;8.354;2022-07-06T07:49:25;101564.00;;;21.00
16956;BMP180;8594;52.052;8.354;2022-07-06T07:51:53;101558.00;;;21.30
16956;BMP180;8594;52.052;8.354;2022-07-06T07:54:21;101562.00;;;21.40
16956;BMP180;8594;52.052;8.354;2022-07-06T07:56:47;101554.00;;;21.40
16956;BMP180;8594;52.052;8.354;2022-07-06T07:59:14;101563.00;;;21.70
16956;BMP180;8594;52.052;8.354;2022-07-06T08:01:41;101559.00;;;21.60
16956;BMP180;8594;52.052;8.354;2022-07-06T08:04:08;101560.00;;;21.60
16956;BMP180;8594;52.052;8.354;2022-07-06T08:06:35;101562.00;;;21.90
16956;BMP180;8594;52.052;8.354;2022-07-06T08:09:03;101552.00;;;21.90
16956;BMP180;8594;52.052;8.354;2022-07-06T08:11:33;101556.00;;;22.10
16956;BMP180;8594;52.052;8.354;2022-07-06T08:13:59;101547.00;;;22.40
16956;BMP180;8594;52.052;8.354;2022-07-06T08:16:26;101547.00;;;22.50
16956;BMP180;8594;52.052;8.354;2022-07-06T08:18:53;101543.00;;;22.20
16956;BMP180;8594;52.052;8.354;2022-07-06T08:21:20;101543.00;;;22.20
16956;BMP180;8594;52.052;8.354;2022-07-06T08:23:47;101548.00;;;22.20
16956;BMP180;8594;52.052;8.354;2022-07-06T08:26:15;101539.00;;;22.00
16956;BMP180;8594;52.052;8.354;2022-07-06T08:28:42;101549.00;;;22.10
16956;BMP180;8594;52.052;8.354;2022-07-06T08:31:09;101550.00;;;21.90
16956;BMP180;8594;52.052;8.354;2022-07-06T08:33:36;101546.00;;;21.40
16956;BMP180;8594;52.052;8.354;2022-07-06T08:36:03;101547.00;;;21.90
16956;BMP180;8594;52.052;8.354;2022-07-06T08:38:31;101542.00;;;21.90
16956;BMP180;8594;52.052;8.354;2022-07-06T08:40:58;101552.00;;;21.50
16956;BMP180;8594;52.052;8.354;2022-07-06T08:43:26;101543.00;;;21.60
16956;BMP180;8594;52.052;8.354;2022-07-06T08:45:54;101546.00;;;21.40
16956;BMP180;8594;52.052;8.354;2022-07-06T08:48:23;101552.00;;;21.60
16956;BMP180;8594;52.052;8.354;2022-07-06T08:50:51;101553.00;;;21.50
16956;BMP180;8594;52.052;8.354;2022-07-06T08:53:19;101555.00;;;21.70
16956;BMP180;8594;52.052;8.354;2022-07-06T08:55:48;101548.00;;;21.50
16956;BMP180;8594;52.052;8.354;2022-07-06T08:58:16;101554.00;;;21.30
16956;BMP180;8594;52.052;8.354;2022-07-06T09:00:44;101544.00;;;21.20
16956;BMP180;8594;52.052;8.354;2022-07-06T09:03:12;101550.00;;;21.00
16956;BMP180;8594;52.052;8.354;2022-07-06T09:05:40;101552.00;;;20.70
16956;BMP180;8594;52.052;8.354;2022-07-06T09:08:09;101559.00;;;20.90
16956;BMP180;8594;52.052;8.354;2022-07-06T09:10:37;101560.00;;;21.10
16956;BMP180;8594;52.052;8.354;2022-07-06T09:13:06;101560.00;;;21.00
16956;BMP180;8594;52.052;8.354;2022-07-06T09:15:35;101562.00;;;21.50
16956;BMP180;8594;52.052;8.354;2022-07-06T09:18:06;101557.00;;;21.20
16956;BMP180;8594;52.052;8.354;2022-07-06T09:20:34;101561.00;;;21.60
16956;BMP180;8594;52.052;8.354;2022-07-06T09:23:03;101563.00;;;21.40
16956;BMP180;8594;52.052;8.354;2022-07-06T09:25:31;101558.00;;;21.40
16956;BMP180;8594;52.052;8.354;2022-07-06T09:27:59;101561.00;;;21.90
16956;BMP180;8594;52.052;8.354;2022-07-06T09:30:28;101545.00;;;21.70
16956;BMP180;8594;52.052;8.354;2022-07-06T09:32:58;101546.00;;;21.70
16956;BMP180;8594;52.052;8.354;2022-07-06T09:35:28;101554.00;;;21.70
16956;BMP180;8594;52.052;8.354;2022-07-06T09:38:05;101545.00;;;21.70
16956;BMP180;8594;52.052;8.354;2022-07-06T09:40:35;101545.00;;;21.50
16956;BMP180;8594;52.052;8.354;2022-07-06T09:43:14;101558.00;;;21.90
16956;BMP180;8594;52.052;8.354;2022-07-06T09:45:43;101548.00;;;22.10
16956;BMP180;8594;52.052;8.354;2022-07-06T09:48:13;101540.00;;;21.80
16956;BMP180;8594;52.052;8.354;2022-07-06T09:50:47;101547.00;;;21.90
16956;BMP180;8594;52.052;8.354;2022-07-06T09:53:15;101550.00;;;21.90
16956;BMP180;8594;52.052;8.354;2022-07-06T09:55:46;101545.00;;;22.00
16956;BMP180;8594;52.052;8.354;2022-07-06T09:58:14;101551.00;;;22.00
16956;BMP180;8594;52.052;8.354;2022-07-06T10:00:41;101553.00;;;22.00
16956;BMP180;8594;52.052;8.354;2022-07-06T10:03:09;101560.00;;;22.10
16956;BMP180;8594;52.052;8.354;2022-07-06T10:05:38;101558.00;;;22.00
16956;BMP180;8594;52.052;8.354;2022-07-06T10:08:08;101566.00;;;22.20
16956;BMP180;8594;52.052;8.354;2022-07-06T10:10:38;101558.00;;;21.90
16956;BMP180;8594;52.052;8.354;2022-07-06T10:13:06;101561.00;;;22.00
16956;BMP180;8594;52.052;8.354;2022-07-06T10:15:36;101561.00;;;22.20
16956;BMP180;8594;52.052;8.354;2022-07-06T10:18:07;101556.00;;;21.90
16956;BMP180;8594;52.052;8.354;2022-07-06T10:20:36;101552.00;;;22.10
16956;BMP180;8594;52.052;8.354;2022-07-06T10:23:08;101552.00;;;22.40
16956;BMP180;8594;52.052;8.354;2022-07-06T10:25:35;101544.00;;;22.30
16956;BMP180;8594;52.052;8.354;2022-07-06T10:28:03;101548.00;;;22.90
16956;BMP180;8594;52.052;8.354;2022-07-06T10:30:38;101549.00;;;23.30
16956;BMP180;8594;52.052;8.354;2022-07-06T10:33:05;101547.00;;;22.90
16956;BMP180;8594;52.052;8.354;2022-07-06T10:35:33;101540.00;;;22.90
16956;BMP180;8594;52.052;8.354;2022-07-06T10:38:07;101551.00;;;23.10
16956;BMP180;8594;52.052;8.354;2022-07-06T10:40:35;101540.00;;;23.30
16956;BMP180;8594;52.052;8.354;2022-07-06T10:43:20;101539.00;;;23.30
16956;BMP180;8594;52.052;8.354;2022-07-06T10:45:52;101541.00;;;23.50
16956;BMP180;8594;52.052;8.354;2022-07-06T10:48:20;101537.00;;;23.30
16956;BMP180;8594;52.052;8.354;2022-07-06T10:50:51;101551.00;;;23.60
16956;BMP180;8594;52.052;8.354;2022-07-06T10:53:25;101542.00;;;23.40
16956;BMP180;8594;52.052;8.354;2022-07-06T10:55:54;101542.00;;;23.50
16956;BMP180;8594;52.052;8.354;2022-07-06T10:58:49;101547.00;;;23.00
16956;BMP180;8594;52.052;8.354;2022-07-06T11:01:17;101545.00;;;23.10
16956;BMP180;8594;52.052;8.354;2022-07-06T11:03:48;101542.00;;;23.60
16956;BMP180;8594;52.052;8.354;2022-07-06T11:06:17;101543.00;;;23.90
16956;BMP180;8594;52.052;8.354;2022-07-06T11:08:49;101538.00;;;23.60
16956;BMP180;8594;52.052;8.354;2022-07-06T11:11:18;101538.00;;;23.20
16956;BMP180;8594;52.052;8.354;2022-07-06T11:13:54;101541.00;;;23.50
16956;BMP180;8594;52.052;8.354;2022-07-06T11:16:24;101537.00;;;23.20
16956;BMP180;8594;52.052;8.354;2022-07-06T11:19:05;101543.00;;;23.20
16956;BMP180;8594;52.052;8.354;2022-07-06T11:21:43;101538.00;;;23.30
16956;BMP180;8594;52.052;8.354;2022-07-06T11:24:14;101534.00;;;22.90
16956;BMP180;8594;52.052;8.354;2022-07-06T11:26:44;101536.00;;;23.30
16956;BMP180;8594;52.052;8.354;2022-07-06T11:29:12;101539.00;;;23.00
16956;BMP180;8594;52.052;8.354;2022-07-06T11:31:42;101539.00;;;23.00
16956;BMP180;8594;52.052;8.354;2022-07-06T11:34:13;101530.00;;;23.10
16956;BMP180;8594;52.052;8.354;2022-07-06T11:36:41;101524.00;;;23.00
16956;BMP180;8594;52.052;8.354;2022-07-06T11:39:08;101522.00;;;23.30
16956;BMP180;8594;52.052;8.354;2022-07-06T11:41:36;101525.00;;;23.70
16956;BMP180;8594;52.052;8.354;2022-07-06T11:44:04;101517.00;;;24.30
16956;BMP180;8594;52.052;8.354;2022-07-06T11:46:33;101517.00;;;24.20
16956;BMP180;8594;52.052;8.354;2022-07-06T11:49:03;101511.00;;;24.50
16956;BMP180;8594;52.052;8.354;2022-07-06T11:51:33;101513.00;;;24.10
16956;BMP180;8594;52.052;8.354;2022-07-06T11:54:07;101510.00;;;24.30
16956;BMP180;8594;52.052;8.354;2022-07-06T11:56:36;101510.00;;;23.90
16956;BMP180;8594;52.052;8.354;2022-07-06T11:59:03;101515.00;;;23.50
16956;BMP180;8594;52.052;8.354;2022-07-06T12:01:31;101510.00;;;23.20
16956;BMP180;8594;52.052;8.354;2022-07-06T12:03:59;101507.00;;;23.60
16956;BMP180;8594;52.052;8.354;2022-07-06T12:06:27;101503.00;;;24.00
16956;BMP180;8594;52.052;8.354;2022-07-06T12:08:56;101505.00;;;23.80
16956;BMP180;8594;52.052;8.354;2022-07-06T12:11:25;101504.00;;;24.00
16956;BMP180;8594;52.052;8.354;2022-07-06T12:13:56;101496.00;;;23.70
16956;BMP180;8594;52.052;8.354;2022-07-06T12:16:30;101498.00;;;23.60
16956;BMP180;8594;52.052;8.354;2022-07-06T12:18:59;101491.00;;;23.70
16956;BMP180;8594;52.052;8.354;2022-07-06T12:21:26;101494.00;;;23.60
16956;BMP180;8594;52.052;8.354;2022-07-06T12:23:55;101494.00;;;23.20
16956;BMP180;8594;52.052;8.354;2022-07-06T12:26:24;101496.00;;;23.50
16956;BMP180;8594;52.052;8.354;2022-07-06T12:29:05;101478.00;;;24.10
16956;BMP180;8594;52.052;8.354;2022-07-06T12:31:37;101486.00;;;24.20
16956;BMP180;8594;52.052;8.354;2022-07-06T12:34:12;101485.00;;;24.10
16956;BMP180;8594;52.052;8.354;2022-07-06T12:36:44;101491.00;;;23.90
16956;BMP180;8594;52.052;8.354;2022-07-06T12:39:15;101490.00;;;24.00
16956;BMP180;8594;52.052;8.354;2022-07-06T12:41:49;101486.00;;;23.90
16956;BMP180;8594;52.052;8.354;2022-07-06T12:44:19;101480.00;;;24.10
16956;BMP180;8594;52.052;8.354;2022-07-06T12:46:48;101482.00;;;24.10
16956;BMP180;8594;52.052;8.354;2022-07-06T12:49:19;101485.00;;;24.60
16956;BMP180;8594;52.052;8.354;2022-07-06T12:52:09;101482.00;;;24.50
16956;BMP180;8594;52.052;8.354;2022-07-06T12:54:41;101476.00;;;25.00
16956;BMP180;8594;52.052;8.354;2022-07-06T12:57:11;101474.00;;;25.10
16956;BMP180;8594;52.052;8.354;2022-07-06T12:59:43;101451.00;;;25.70
16956;BMP180;8594;52.052;8.354;2022-07-06T13:02:19;101455.00;;;25.30
16956;BMP180;8594;52.052;8.354;2022-07-06T13:04:56;101464.00;;;24.90
16956;BMP180;8594;52.052;8.354;2022-07-06T13:07:24;101458.00;;;25.40
16956;BMP180;8594;52.052;8.354;2022-07-06T13:09:52;101473.00;;;25.40
16956;BMP180;8594;52.052;8.354;2022-07-06T13:12:20;101461.00;;;25.10
16956;BMP180;8594;52.052;8.354;2022-07-06T13:14:49;101462.00;;;24.50
16956;BMP180;8594;52.052;8.354;2022-07-06T13:17:16;101458.00;;;24.70
16956;BMP180;8594;52.052;8.354;2022-07-06T13:19:43;101454.00;;;24.00
16956;BMP180;8594;52.052;8.354;2022-07-06T13:22:10;101450.00;;;24.50
16956;BMP180;8594;52.052;8.354;2022-07-06T13:24:37;101443.00;;;25.00
16956;BMP180;8594;52.052;8.354;2022-07-06T13:27:05;101455.00;;;25.20
16956;BMP180;8594;52.052;8.354;2022-07-06T13:29:32;101457.00;;;25.00
16956;BMP180;8594;52.052;8.354;2022-07-06T13:32:00;101452.00;;;24.70
16956;BMP180;8594;52.052;8.354;2022-07-06T13:34:27;101444.00;;;25.50
16956;BMP180;8594;52.052;8.354;2022-07-06T13:36:54;101442.00;;;25.70
16956;BMP180;8594;52.052;8.354;2022-07-06T13:39:21;101436.00;;;26.10
16956;BMP180;8594;52.052;8.354;2022-07-06T13:41:49;101442.00;;;25.70
16956;BMP180;8594;52.052;8.354;2022-07-06T13:44:16;101439.00;;;25.70
16956;BMP180;8594;52.052;8.354;2022-07-06T13:46:43;101440.00;;;25.60
16956;BMP180;8594;52.052;8.354;2022-07-06T13:49:12;101423.00;;;24.90
16956;BMP180;8594;52.052;8.354;2022-07-06T13:51:39;101431.00;;;25.20
16956;BMP180;8594;52.052;8.354;2022-07-06T13:54:06;101436.00;;;25.70
16956;BMP180;8594;52.052;8.354;2022-07-06T13:56:34;101431.00;;;25.50
16956;BMP180;8594;52.052;8.354;2022-07-06T13:59:01;101429.00;;;25.20
16956;BMP180;8594;52.052;8.354;2022-07-06T14:01:28;101433.00;;;25.20
16956;BMP180;8594;52.052;8.354;2022-07-06T14:03:54;101427.00;;;25.60
16956;BMP180;8594;52.052;8.354;2022-07-06T14:06:23;101430.00;;;25.30
16956;BMP180;8594;52.052;8.354;2022-07-06T14:08:50;101439.00;;;25.40
16956;BMP180;8594;52.052;8.354;2022-07-06T14:11:18;101443.00;;;25.30
16956;BMP180;8594;52.052;8.354;2022-07-06T14:13:44;101441.00;;;25.20
16956;BMP180;8594;52.052;8.354;2022-07-06T14:16:11;101433.00;;;25.30